Time;durP1;ratioP1;P1;durP2;ratioP2;P2;SDS_P1;SDS_P2;PMS_P1;PMS_P2;Temp;Humidity;BMP_temperature;BMP_pressure;BME280_temperature;BME280_humidity;BME280_pressure;Samples;Min_cycle;Max_cycle;Signal;HPM_P1;HPM_P2
2021/12/20 00:01:47;;;;;;;21.83;3.63;;;;;;;;;;4931661;29;20384;-84
2021/12/20 00:04:13;;;;;;;23.48;3.50;;;;;;;;;;4949310;28;20051;-85
2021/12/20 00:06:39;;;;;;;18.13;2.78;;;;;;;;;;4931485;29;20563;-83
2021/12/20 00:09:05;;;;;;;25.23;3.92;;;;;;;;;;4946487;28;20098;-83
2021/12/20 00:11:31;;;;;;;31.58;3.80;;;;;;;;;;4930182;29;20078;-83
2021/12/20 00:13:58;;;;;;;19.38;3.38;;;;;;;;;;4930814;28;20047;-83
2021/12/20 00:16:24;;;;;;;25.75;3.53;;;;;;;;;;4947384;29;20055;-85
2021/12/20 00:18:51;;;;;;;25.70;3.85;;;;;;;;;;4947748;28;20031;-86
2021/12/20 00:21:17;;;;;;;22.67;4.45;;;;;;;;;;4946718;28;20435;-84
2021/12/20 00:23:43;;;;;;;26.60;3.63;;;;;;;;;;4963404;28;20062;-84
2021/12/20 00:26:10;;;;;;;25.00;3.85;;;;;;;;;;4962813;28;20452;-84
2021/12/20 00:28:37;;;;;;;26.52;3.90;;;;;;;;;;4948343;29;20047;-84
2021/12/20 00:31:03;;;;;;;33.55;4.55;;;;;;;;;;4932548;29;20051;-84
2021/12/20 00:33:33;;;;;;;22.92;3.28;;;;;;;;;;4942151;28;20190;-85
2021/12/20 00:36:00;;;;;;;28.58;3.88;;;;;;;;;;4948709;28;20141;-84
2021/12/20 00:41:10;;;;;;;;;;;;;;;;;;4957171;28;20507;-85
2021/12/20 00:43:36;;;;;;;25.70;3.53;;;;;;;;;;4951417;29;19930;-84
2021/12/20 00:46:02;;;;;;;32.95;4.35;;;;;;;;;;4950763;28;20075;-84
2021/12/20 00:48:29;;;;;;;31.17;3.80;;;;;;;;;;4952081;28;20089;-84
2021/12/20 00:50:55;;;;;;;21.15;3.85;;;;;;;;;;4952698;28;20407;-83
2021/12/20 00:53:22;;;;;;;30.58;4.53;;;;;;;;;;4965487;28;20130;-84
2021/12/20 00:55:48;;;;;;;28.27;3.92;;;;;;;;;;4949701;28;20511;-84
2021/12/20 00:58:15;;;;;;;27.27;4.07;;;;;;;;;;4953939;28;20047;-83
2021/12/20 01:00:43;;;;;;;28.70;3.92;;;;;;;;;;4939640;29;20055;-84
2021/12/20 01:03:10;;;;;;;26.90;3.72;;;;;;;;;;4950136;28;20118;-84
2021/12/20 01:05:38;;;;;;;27.95;4.00;;;;;;;;;;4952405;28;20133;-84
2021/12/20 01:08:05;;;;;;;24.60;3.70;;;;;;;;;;4950339;29;20059;-84
2021/12/20 01:10:32;;;;;;;29.38;3.78;;;;;;;;;;4948700;28;20047;-84
2021/12/20 01:13:01;;;;;;;37.15;4.70;;;;;;;;;;4952239;28;20470;-84
2021/12/20 01:15:31;;;;;;;20.42;3.42;;;;;;;;;;4952369;28;20039;-85
2021/12/20 01:17:57;;;;;;;32.85;5.28;;;;;;;;;;4949768;29;20047;-84
2021/12/20 01:20:23;;;;;;;22.27;3.22;;;;;;;;;;4953656;28;20035;-85
2021/12/20 01:22:50;;;;;;;22.13;4.05;;;;;;;;;;4965958;28;20047;-84
2021/12/20 01:25:18;;;;;;;26.75;3.83;;;;;;;;;;4951000;28;20035;-85
2021/12/20 01:27:44;;;;;;;34.45;4.65;;;;;;;;;;4946152;28;20035;-85
2021/12/20 01:30:11;;;;;;;28.65;5.05;;;;;;;;;;4937688;29;20054;-83
2021/12/20 01:32:37;;;;;;;18.52;3.92;;;;;;;;;;4949471;28;20086;-83
2021/12/20 01:35:04;;;;;;;33.28;3.63;;;;;;;;;;4965114;28;20376;-84
2021/12/20 01:37:31;;;;;;;30.40;3.85;;;;;;;;;;4969851;28;20055;-84
2021/12/20 01:39:59;;;;;;;30.17;3.88;;;;;;;;;;4946837;29;20051;-84
2021/12/20 01:42:25;;;;;;;29.52;4.07;;;;;;;;;;4936116;29;20051;-84
2021/12/20 01:44:55;;;;;;;19.45;3.17;;;;;;;;;;4950250;29;20051;-87
2021/12/20 01:47:22;;;;;;;21.05;4.03;;;;;;;;;;4950740;29;20499;-84
2021/12/20 01:50:02;;;;;;;29.25;3.97;;;;;;;;;;4961957;28;20511;-84
2021/12/20 01:52:38;;;;;;;20.20;3.33;;;;;;;;;;4933161;28;20055;-86
2021/12/20 01:55:04;;;;;;;21.73;3.30;;;;;;;;;;4935239;28;20058;-84
2021/12/20 01:57:30;;;;;;;25.63;3.50;;;;;;;;;;4952376;28;20070;-84
2021/12/20 01:59:56;;;;;;;26.60;3.38;;;;;;;;;;4927080;29;20054;-85
2021/12/20 02:02:23;;;;;;;19.63;3.10;;;;;;;;;;4932658;28;20046;-83
2021/12/20 02:04:51;;;;;;;16.60;2.67;;;;;;;;;;4933032;29;20062;-84
2021/12/20 02:07:35;;;;;;;19.95;3.60;;;;;;;;;;4933793;29;20058;-84
2021/12/20 02:10:01;;;;;;;;;;;;;;;;;;4937450;29;20047;-84
2021/12/20 02:12:27;;;;;;;20.88;3.60;;;;;;;;;;4932881;29;20395;-84
2021/12/20 02:14:53;;;;;;;26.58;3.00;;;;;;;;;;4929208;29;20051;-84
2021/12/20 02:17:19;;;;;;;31.60;3.72;;;;;;;;;;4904717;29;20208;-84
2021/12/20 02:19:45;;;;;;;20.65;3.28;;;;;;;;;;4931915;29;20091;-84
2021/12/20 02:22:11;;;;;;;26.27;3.42;;;;;;;;;;4915575;29;20408;-84
2021/12/20 02:24:37;;;;;;;18.17;3.67;;;;;;;;;;4901036;29;20512;-85
2021/12/20 02:27:03;;;;;;;19.83;2.65;;;;;;;;;;4895782;29;20052;-84
2021/12/20 02:29:44;;;;;;;18.30;3.05;;;;;;;;;;4922231;29;20589;-86
2021/12/20 02:37:39;;;;;;;13.50;2.60;;;;;;;;;;4930008;29;20378;-86
2021/12/20 02:40:06;;;;;;;26.65;2.72;;;;;;;;;;4913035;29;20054;-86
2021/12/20 02:42:36;;;;;;;21.45;2.83;;;;;;;;;;4922478;29;20105;-85
2021/12/20 02:45:14;;;;;;;20.73;2.72;;;;;;;;;;4914851;29;20556;-85
2021/12/20 02:47:42;;;;;;;19.55;3.13;;;;;;;;;;4913350;29;20051;-85
2021/12/20 02:50:08;;;;;;;13.65;2.58;;;;;;;;;;4909300;29;20074;-85
2021/12/20 02:52:34;;;;;;;20.85;3.80;;;;;;;;;;4912480;29;20080;-85
2021/12/20 02:55:00;;;;;;;15.30;2.55;;;;;;;;;;4923190;29;20159;-86
2021/12/20 02:57:27;;;;;;;14.48;2.63;;;;;;;;;;4900538;29;20027;-86
2021/12/20 02:59:53;;;;;;;18.85;3.20;;;;;;;;;;4916795;29;20047;-86
2021/12/20 03:02:21;;;;;;;25.55;3.35;;;;;;;;;;4938513;29;20074;-85
2021/12/20 03:04:47;;;;;;;22.45;3.17;;;;;;;;;;4912959;29;20059;-86
2021/12/20 03:07:20;;;;;;;19.23;2.75;;;;;;;;;;4928220;29;20048;-86
2021/12/20 03:09:51;;;;;;;20.08;3.10;;;;;;;;;;4929044;29;20048;-83
2021/12/20 03:12:17;;;;;;;19.05;3.45;;;;;;;;;;4911775;29;20134;-84
2021/12/20 03:14:47;;;;;;;23.55;3.08;;;;;;;;;;4930427;29;20506;-85
2021/12/20 03:17:13;;;;;;;17.98;2.80;;;;;;;;;;4930890;29;20093;-83
2021/12/20 03:19:39;;;;;;;20.00;2.88;;;;;;;;;;4938306;29;20242;-84
2021/12/20 03:22:06;;;;;;;17.40;2.90;;;;;;;;;;4919158;29;20061;-85
2021/12/20 03:24:33;;;;;;;17.52;2.65;;;;;;;;;;4926975;29;20689;-83
2021/12/20 03:26:59;;;;;;;21.90;2.70;;;;;;;;;;4930955;29;20043;-83
2021/12/20 03:29:25;;;;;;;15.55;2.65;;;;;;;;;;4930838;28;20956;-83
2021/12/20 03:31:51;;;;;;;23.23;2.88;;;;;;;;;;4931334;29;20065;-82
2021/12/20 03:34:18;;;;;;;20.73;2.95;;;;;;;;;;4930467;28;20050;-84
2021/12/20 03:36:44;;;;;;;24.92;3.00;;;;;;;;;;4931172;29;20439;-83
2021/12/20 03:39:10;;;;;;;15.10;2.67;;;;;;;;;;4927692;29;20044;-83
2021/12/20 03:41:37;;;;;;;20.60;3.08;;;;;;;;;;4922284;29;20042;-84
2021/12/20 03:44:03;;;;;;;18.15;2.63;;;;;;;;;;4931092;28;20051;-84
2021/12/20 03:46:29;;;;;;;22.90;2.92;;;;;;;;;;4948131;28;20059;-83
2021/12/20 03:48:55;;;;;;;20.92;3.47;;;;;;;;;;4931118;29;20137;-83
2021/12/20 03:51:21;;;;;;;33.38;2.50;;;;;;;;;;4930815;28;20047;-84
2021/12/20 03:53:48;;;;;;;16.45;3.17;;;;;;;;;;4915299;29;20047;-84
2021/12/20 03:56:14;;;;;;;22.25;4.03;;;;;;;;;;4929374;29;20048;-84
2021/12/20 03:58:40;;;;;;;20.30;2.20;;;;;;;;;;4915301;29;20049;-84
2021/12/20 04:01:10;;;;;;;17.52;2.90;;;;;;;;;;4951393;28;20162;-83
2021/12/20 04:03:36;;;;;;;31.85;3.78;;;;;;;;;;4931929;28;20079;-83
2021/12/20 04:06:07;;;;;;;33.67;3.95;;;;;;;;;;4931760;29;20047;-83
2021/12/20 04:08:34;;;;;;;24.65;3.80;;;;;;;;;;4928545;29;20043;-83
2021/12/20 04:11:00;;;;;;;20.05;3.85;;;;;;;;;;4929425;29;20081;-83
2021/12/20 04:13:27;;;;;;;23.70;2.80;;;;;;;;;;4946770;28;20047;-84
2021/12/20 04:15:53;;;;;;;24.38;2.85;;;;;;;;;;4933444;28;20657;-85
2021/12/20 04:18:20;;;;;;;24.90;3.28;;;;;;;;;;4931183;28;20090;-83
2021/12/20 04:20:46;;;;;;;25.08;3.33;;;;;;;;;;4928405;29;20047;-83
2021/12/20 04:23:12;;;;;;;26.58;3.65;;;;;;;;;;4927511;28;20047;-84
2021/12/20 04:25:38;;;;;;;11.45;2.72;;;;;;;;;;4930155;28;20050;-84
2021/12/20 04:28:04;;;;;;;19.42;2.60;;;;;;;;;;4934256;29;20043;-83
2021/12/20 04:30:31;;;;;;;21.95;4.18;;;;;;;;;;4945437;28;20053;-83
2021/12/20 04:32:58;;;;;;;27.67;3.15;;;;;;;;;;4921828;29;20110;-83
2021/12/20 04:35:24;;;;;;;22.25;3.55;;;;;;;;;;4915526;28;20039;-84
2021/12/20 04:37:51;;;;;;;19.75;2.70;;;;;;;;;;4954920;28;20051;-84
2021/12/20 04:40:21;;;;;;;22.10;3.05;;;;;;;;;;4946903;29;20798;-83
2021/12/20 04:42:52;;;;;;;23.85;3.22;;;;;;;;;;4936516;28;20531;-84
2021/12/20 04:45:18;;;;;;;30.52;5.20;;;;;;;;;;4936365;29;20047;-84
2021/12/20 04:47:44;;;;;;;33.60;3.40;;;;;;;;;;4932746;29;20070;-83
2021/12/20 04:50:10;;;;;;;24.13;3.13;;;;;;;;;;4938100;28;20050;-83
2021/12/20 04:52:36;;;;;;;22.75;2.95;;;;;;;;;;4936994;29;20513;-84
2021/12/20 04:55:03;;;;;;;17.33;3.00;;;;;;;;;;4946218;28;20055;-85
2021/12/20 04:57:30;;;;;;;15.80;2.10;;;;;;;;;;4923639;28;20039;-84
2021/12/20 04:59:56;;;;;;;16.00;2.25;;;;;;;;;;4923620;28;20491;-85
2021/12/20 05:02:22;;;;;;;10.90;1.45;;;;;;;;;;4918517;28;20047;-82
2021/12/20 05:04:48;;;;;;;18.92;2.35;;;;;;;;;;4936534;28;20094;-83
2021/12/20 05:07:22;;;;;;;13.77;2.22;;;;;;;;;;4944267;28;20042;-83
2021/12/20 05:09:49;;;;;;;14.65;1.80;;;;;;;;;;4943022;29;20078;-82
2021/12/20 05:12:15;;;;;;;11.32;2.20;;;;;;;;;;4932847;28;20144;-82
2021/12/20 05:14:42;;;;;;;12.52;2.50;;;;;;;;;;4961313;28;20031;-83
2021/12/20 05:17:12;;;;;;;13.63;3.03;;;;;;;;;;4949529;28;20043;-84
2021/12/20 05:19:40;;;;;;;18.88;2.47;;;;;;;;;;4949857;28;20062;-83
2021/12/20 05:22:06;;;;;;;16.80;3.08;;;;;;;;;;4932725;29;20086;-84
2021/12/20 05:24:32;;;;;;;10.50;2.10;;;;;;;;;;4932124;29;20086;-85
2021/12/20 05:26:58;;;;;;;11.63;2.40;;;;;;;;;;4915793;29;20566;-85
2021/12/20 05:29:25;;;;;;;17.42;2.47;;;;;;;;;;4931692;28;20035;-85
2021/12/20 05:31:51;;;;;;;16.33;2.40;;;;;;;;;;4932295;29;20087;-84
2021/12/20 05:34:17;;;;;;;17.02;2.63;;;;;;;;;;4936313;28;20047;-84
2021/12/20 05:36:44;;;;;;;15.30;2.65;;;;;;;;;;4936510;29;20039;-85
2021/12/20 05:39:10;;;;;;;24.95;3.15;;;;;;;;;;4917152;28;20078;-84
2021/12/20 05:41:36;;;;;;;23.60;4.05;;;;;;;;;;4961590;28;20043;-85
2021/12/20 05:44:02;;;;;;;18.65;3.38;;;;;;;;;;4951106;29;20050;-85
2021/12/20 05:46:28;;;;;;;16.67;2.63;;;;;;;;;;4950903;28;20047;-83
2021/12/20 05:48:54;;;;;;;15.73;3.13;;;;;;;;;;4946562;28;20051;-84
2021/12/20 05:51:20;;;;;;;19.42;2.45;;;;;;;;;;4968664;28;20047;-86
2021/12/20 05:53:46;;;;;;;22.38;2.85;;;;;;;;;;4935612;29;20054;-85
2021/12/20 05:56:12;;;;;;;20.33;3.15;;;;;;;;;;4931895;29;20411;-84
2021/12/20 05:58:40;;;;;;;25.77;3.88;;;;;;;;;;4932158;29;20503;-85
2021/12/20 06:01:06;;;;;;;22.90;3.42;;;;;;;;;;4935283;28;20514;-84
2021/12/20 06:03:32;;;;;;;13.52;3.22;;;;;;;;;;4939335;28;20046;-84
2021/12/20 06:05:58;;;;;;;19.02;3.58;;;;;;;;;;4931597;29;20054;-84
2021/12/20 06:08:24;;;;;;;21.58;2.97;;;;;;;;;;4929226;29;20578;-85
2021/12/20 06:10:50;;;;;;;26.20;3.53;;;;;;;;;;4951984;28;20125;-84
2021/12/20 06:13:16;;;;;;;20.92;3.47;;;;;;;;;;4949369;28;20225;-84
2021/12/20 06:15:42;;;;;;;26.75;3.22;;;;;;;;;;4916325;29;20042;-85
2021/12/20 06:18:09;;;;;;;26.75;2.88;;;;;;;;;;4929345;29;20071;-85
2021/12/20 06:20:35;;;;;;;28.83;5.18;;;;;;;;;;4916672;29;20051;-85
2021/12/20 06:23:01;;;;;;;24.45;4.78;;;;;;;;;;4932833;29;20261;-85
2021/12/20 06:25:27;;;;;;;30.77;5.00;;;;;;;;;;4932541;29;20134;-85
2021/12/20 06:27:53;;;;;;;31.90;4.95;;;;;;;;;;4932988;28;20047;-83
2021/12/20 06:30:22;;;;;;;21.58;5.97;;;;;;;;;;4954085;28;20570;-83
2021/12/20 06:32:49;;;;;;;21.13;3.80;;;;;;;;;;4942944;28;20050;-85
2021/12/20 06:35:15;;;;;;;31.60;4.53;;;;;;;;;;4950019;28;20488;-84
2021/12/20 06:37:48;;;;;;;17.35;3.67;;;;;;;;;;4951716;28;20039;-85
2021/12/20 06:40:14;;;;;;;28.80;4.95;;;;;;;;;;4948129;28;20050;-84
2021/12/20 06:42:40;;;;;;;33.88;4.72;;;;;;;;;;4956877;28;20040;-84
2021/12/20 06:45:06;;;;;;;26.25;4.65;;;;;;;;;;4933102;28;20503;-85
2021/12/20 06:47:33;;;;;;;28.58;4.70;;;;;;;;;;4940114;28;20238;-84
2021/12/20 06:49:59;;;;;;;21.45;5.10;;;;;;;;;;4937949;28;20436;-84
2021/12/20 06:52:25;;;;;;;46.03;6.10;;;;;;;;;;4928185;28;20504;-84
2021/12/20 06:54:52;;;;;;;60.85;8.00;;;;;;;;;;4924511;28;20424;-85
2021/12/20 06:57:20;;;;;;;82.63;11.13;;;;;;;;;;4945578;28;20038;-85
2021/12/20 06:59:46;;;;;;;41.10;8.10;;;;;;;;;;4942337;29;20263;-85
2021/12/20 07:02:12;;;;;;;74.53;13.73;;;;;;;;;;4942581;29;20031;-84
2021/12/20 07:04:38;;;;;;;33.65;8.57;;;;;;;;;;4934960;28;20922;-84
2021/12/20 07:07:04;;;;;;;27.20;8.35;;;;;;;;;;4953493;28;20035;-85
2021/12/20 07:09:30;;;;;;;32.55;6.28;;;;;;;;;;4941877;28;20042;-83
2021/12/20 07:11:57;;;;;;;21.90;5.63;;;;;;;;;;4950344;28;20150;-84
2021/12/20 07:14:27;;;;;;;24.75;5.47;;;;;;;;;;4941209;29;20134;-85
2021/12/20 07:16:54;;;;;;;26.67;6.90;;;;;;;;;;4945610;29;20239;-84
2021/12/20 07:19:20;;;;;;;27.63;6.50;;;;;;;;;;4945621;29;20090;-85
2021/12/20 07:21:47;;;;;;;29.45;4.82;;;;;;;;;;4941853;29;20370;-85
2021/12/20 07:24:13;;;;;;;24.50;6.07;;;;;;;;;;4926834;29;20040;-86
2021/12/20 07:26:41;;;;;;;30.85;3.22;;;;;;;;;;4933615;29;20431;-86
2021/12/20 07:29:07;;;;;;;15.73;3.83;;;;;;;;;;4919790;29;20046;-87
2021/12/20 07:31:33;;;;;;;15.30;3.40;;;;;;;;;;4915730;29;20858;-86
2021/12/20 07:33:59;;;;;;;13.63;2.90;;;;;;;;;;4927570;29;20039;-83
2021/12/20 07:36:25;;;;;;;10.88;2.60;;;;;;;;;;4909273;29;20418;-84
2021/12/20 07:38:52;;;;;;;10.82;3.35;;;;;;;;;;4941375;29;20122;-85
2021/12/20 07:41:21;;;;;;;28.83;5.25;;;;;;;;;;4934006;29;20058;-84
2021/12/20 07:43:48;;;;;;;12.43;3.45;;;;;;;;;;4928581;29;20053;-84
2021/12/20 07:46:15;;;;;;;16.75;4.57;;;;;;;;;;4935344;29;20480;-84
2021/12/20 07:48:41;;;;;;;21.55;4.65;;;;;;;;;;4932823;29;20158;-84
2021/12/20 07:51:07;;;;;;;24.65;5.78;;;;;;;;;;4924343;29;20059;-85
2021/12/20 07:53:33;;;;;;;30.58;5.55;;;;;;;;;;4911112;29;20508;-85
2021/12/20 07:55:59;;;;;;;19.98;5.25;;;;;;;;;;4933865;29;20494;-86
2021/12/20 07:58:25;;;;;;;34.42;6.60;;;;;;;;;;4912254;29;20051;-85
2021/12/20 08:00:51;;;;;;;23.50;6.30;;;;;;;;;;4915962;29;20090;-84
2021/12/20 08:03:18;;;;;;;28.77;7.00;;;;;;;;;;4945939;29;20070;-84
2021/12/20 08:05:45;;;;;;;21.00;6.72;;;;;;;;;;4936171;29;20040;-84
2021/12/20 08:08:11;;;;;;;30.77;7.25;;;;;;;;;;4931269;29;20055;-85
2021/12/20 08:10:43;;;;;;;21.17;4.53;;;;;;;;;;4932998;29;20057;-85
2021/12/20 08:13:10;;;;;;;27.05;6.53;;;;;;;;;;4937479;29;20066;-84
2021/12/20 08:15:36;;;;;;;14.57;3.10;;;;;;;;;;4948937;29;20832;-84
2021/12/20 08:18:03;;;;;;;22.40;4.10;;;;;;;;;;4948425;29;20079;-85
2021/12/20 08:20:30;;;;;;;17.48;4.00;;;;;;;;;;4925403;29;20103;-84
2021/12/20 08:22:56;;;;;;;20.30;3.65;;;;;;;;;;4948224;28;20050;-85
2021/12/20 08:25:22;;;;;;;18.52;4.20;;;;;;;;;;4931633;29;20150;-84
2021/12/20 08:27:49;;;;;;;18.58;5.18;;;;;;;;;;4927619;29;20431;-84
2021/12/20 08:30:16;;;;;;;31.98;7.95;;;;;;;;;;4947310;28;20455;-85
2021/12/20 08:32:42;;;;;;;18.38;6.43;;;;;;;;;;4948462;28;20400;-86
2021/12/20 08:35:09;;;;;;;9.52;4.15;;;;;;;;;;4930133;29;20049;-85
2021/12/20 08:37:36;;;;;;;12.75;3.22;;;;;;;;;;4945966;28;20039;-84
2021/12/20 08:40:02;;;;;;;14.40;3.28;;;;;;;;;;4948111;29;20043;-85
2021/12/20 08:42:28;;;;;;;12.10;2.40;;;;;;;;;;4935389;29;20399;-84
2021/12/20 08:44:54;;;;;;;9.20;2.30;;;;;;;;;;4942877;28;20051;-84
2021/12/20 08:47:21;;;;;;;7.97;1.95;;;;;;;;;;4946600;29;20491;-84
2021/12/20 08:49:47;;;;;;;5.88;2.85;;;;;;;;;;4945838;29;20083;-84
2021/12/20 08:52:14;;;;;;;11.35;3.60;;;;;;;;;;4927237;29;20131;-84
2021/12/20 08:54:40;;;;;;;6.82;2.45;;;;;;;;;;4948254;29;20197;-84
2021/12/20 08:57:07;;;;;;;12.50;2.97;;;;;;;;;;4949889;29;20035;-84
2021/12/20 08:59:34;;;;;;;10.32;2.67;;;;;;;;;;4971009;28;20126;-84
2021/12/20 09:02:00;;;;;;;10.60;2.90;;;;;;;;;;4940206;29;20043;-85
2021/12/20 09:04:26;;;;;;;13.02;3.50;;;;;;;;;;4942631;29;20493;-87
2021/12/20 09:06:53;;;;;;;11.35;2.95;;;;;;;;;;4935562;29;20579;-85
2021/12/20 09:09:19;;;;;;;10.18;2.97;;;;;;;;;;4931429;29;20425;-86
2021/12/20 09:11:45;;;;;;;12.90;3.35;;;;;;;;;;4937863;28;20519;-86
2021/12/20 09:14:14;;;;;;;12.02;3.80;;;;;;;;;;4961136;28;20051;-85
2021/12/20 09:16:41;;;;;;;9.00;3.35;;;;;;;;;;4961711;28;20086;-87
2021/12/20 09:19:07;;;;;;;6.00;2.58;;;;;;;;;;4956369;28;20097;-85
2021/12/20 09:21:34;;;;;;;10.77;2.90;;;;;;;;;;4956044;28;20035;-84
2021/12/20 09:24:00;;;;;;;8.63;2.92;;;;;;;;;;4963213;28;20142;-86
2021/12/20 09:26:27;;;;;;;7.85;2.80;;;;;;;;;;4961228;28;20043;-86
2021/12/20 09:28:53;;;;;;;15.65;3.60;;;;;;;;;;4955872;28;20344;-85
2021/12/20 09:31:19;;;;;;;11.10;3.80;;;;;;;;;;4936727;28;20344;-85
2021/12/20 09:33:45;;;;;;;22.55;9.13;;;;;;;;;;4955741;28;20047;-87
2021/12/20 09:36:11;;;;;;;18.02;6.00;;;;;;;;;;4958537;28;20038;-86
2021/12/20 09:38:37;;;;;;;13.27;5.57;;;;;;;;;;4954416;28;20051;-86
2021/12/20 09:43:45;;;;;;;12.63;4.63;;;;;;;;;;4979508;28;20070;-88
2021/12/20 09:46:11;;;;;;;15.75;5.03;;;;;;;;;;4949454;28;20392;-85
2021/12/20 09:48:38;;;;;;;12.38;3.80;;;;;;;;;;4954020;28;20122;-85
2021/12/20 09:51:05;;;;;;;13.32;3.08;;;;;;;;;;4949954;28;20119;-84
2021/12/20 09:53:31;;;;;;;7.68;2.95;;;;;;;;;;4951672;28;20050;-84
2021/12/20 09:55:58;;;;;;;11.70;2.70;;;;;;;;;;4952175;28;20031;-83
2021/12/20 09:58:24;;;;;;;6.85;2.53;;;;;;;;;;4950665;28;20035;-82
2021/12/20 10:00:51;;;;;;;10.75;2.92;;;;;;;;;;4937272;28;20126;-83
2021/12/20 10:03:21;;;;;;;10.60;3.60;;;;;;;;;;4965019;28;20038;-86
2021/12/20 10:05:48;;;;;;;8.90;3.30;;;;;;;;;;4949240;28;20042;-85
2021/12/20 10:08:20;;;;;;;11.45;3.33;;;;;;;;;;4964432;28;20043;-82
2021/12/20 10:10:49;;;;;;;21.90;3.58;;;;;;;;;;4956008;28;20111;-84
2021/12/20 10:13:26;;;;;;;20.35;4.22;;;;;;;;;;4966684;28;20516;-83
2021/12/20 10:15:53;;;;;;;31.55;5.15;;;;;;;;;;4977872;28;20058;-83
2021/12/20 10:18:20;;;;;;;25.60;4.80;;;;;;;;;;4965247;28;20066;-84
2021/12/20 10:20:50;;;;;;;21.02;4.25;;;;;;;;;;4959636;28;20142;-84
2021/12/20 10:23:19;;;;;;;21.55;4.50;;;;;;;;;;4963387;28;20093;-83
2021/12/20 10:25:47;;;;;;;21.45;3.90;;;;;;;;;;4951308;28;20062;-83
2021/12/20 10:28:16;;;;;;;23.33;3.85;;;;;;;;;;4963315;28;20471;-83
2021/12/20 10:30:50;;;;;;;22.88;3.95;;;;;;;;;;4957188;28;20533;-83
2021/12/20 10:33:18;;;;;;;22.45;4.22;;;;;;;;;;4952826;28;20047;-82
2021/12/20 10:35:46;;;;;;;23.98;4.20;;;;;;;;;;4964741;28;20134;-83
2021/12/20 10:38:21;;;;;;;22.90;4.05;;;;;;;;;;4959624;28;20047;-82
2021/12/20 10:40:57;;;;;;;21.13;4.45;;;;;;;;;;4972660;28;20107;-82
2021/12/20 10:43:25;;;;;;;24.10;3.97;;;;;;;;;;4977328;28;20045;-82
2021/12/20 10:45:53;;;;;;;20.90;4.63;;;;;;;;;;4958449;28;20444;-85
2021/12/20 10:48:19;;;;;;;20.17;3.35;;;;;;;;;;4964852;28;20085;-84
2021/12/20 10:50:46;;;;;;;19.52;3.83;;;;;;;;;;4957652;28;20043;-84
2021/12/20 10:53:18;;;;;;;15.77;3.20;;;;;;;;;;4956399;28;20114;-85
2021/12/20 10:55:45;;;;;;;17.67;3.53;;;;;;;;;;4953578;28;20070;-86
2021/12/20 10:58:22;;;;;;;22.63;3.88;;;;;;;;;;4964758;28;20499;-85
2021/12/20 11:01:01;;;;;;;23.85;3.78;;;;;;;;;;4956729;28;20057;-86
2021/12/20 11:03:34;;;;;;;15.50;3.03;;;;;;;;;;4961343;28;20062;-85
2021/12/20 11:06:37;;;;;;;14.43;2.93;;;;;;;;;;4932560;28;20110;-85
2021/12/20 11:09:08;;;;;;;21.00;3.72;;;;;;;;;;4946570;28;20058;-85
2021/12/20 11:11:35;;;;;;;13.60;2.88;;;;;;;;;;4959006;28;20050;-85
2021/12/20 11:14:02;;;;;;;9.43;2.35;;;;;;;;;;4963929;28;20059;-85
2021/12/20 11:16:30;;;;;;;15.20;3.65;;;;;;;;;;4935669;28;20050;-87
2021/12/20 11:19:08;;;;;;;11.70;2.25;;;;;;;;;;4946036;28;20134;-84
2021/12/20 11:21:36;;;;;;;11.10;2.75;;;;;;;;;;4938373;28;20047;-85
2021/12/20 11:24:02;;;;;;;9.82;2.63;;;;;;;;;;4933217;28;20089;-86
2021/12/20 11:26:28;;;;;;;9.85;2.47;;;;;;;;;;4955551;28;20054;-85
2021/12/20 11:28:58;;;;;;;6.68;1.98;;;;;;;;;;4945017;28;20062;-86
2021/12/20 11:31:24;;;;;;;6.20;1.70;;;;;;;;;;4946984;28;20050;-86
2021/12/20 11:33:50;;;;;;;8.23;2.05;;;;;;;;;;4940864;28;20047;-85
2021/12/20 11:36:16;;;;;;;6.80;2.22;;;;;;;;;;4914277;28;20178;-86
2021/12/20 11:38:42;;;;;;;8.02;1.88;;;;;;;;;;4948289;28;20125;-84
2021/12/20 11:41:08;;;;;;;11.70;1.52;;;;;;;;;;4941776;28;20638;-85
2021/12/20 11:43:34;;;;;;;9.05;1.67;;;;;;;;;;4941765;28;20082;-84
2021/12/20 11:46:05;;;;;;;13.02;2.45;;;;;;;;;;4943402;28;20467;-85
2021/12/20 11:48:32;;;;;;;8.75;1.70;;;;;;;;;;4944938;28;20511;-85
2021/12/20 11:50:59;;;;;;;13.65;2.92;;;;;;;;;;4943729;28;20059;-88
2021/12/20 11:53:34;;;;;;;12.15;2.47;;;;;;;;;;4948842;28;20048;-85
2021/12/20 11:56:00;;;;;;;11.10;2.40;;;;;;;;;;4942657;28;20051;-84
2021/12/20 11:58:30;;;;;;;7.93;1.85;;;;;;;;;;4931419;28;20089;-84
2021/12/20 12:01:26;;;;;;;6.63;1.73;;;;;;;;;;4952946;28;20039;-84
2021/12/20 12:03:53;;;;;;;3.65;1.30;;;;;;;;;;4926810;28;20069;-86
2021/12/20 12:06:27;;;;;;;10.18;1.90;;;;;;;;;;4962041;28;20106;-85
2021/12/20 12:08:59;;;;;;;6.35;1.70;;;;;;;;;;4931635;28;20054;-85
2021/12/20 12:11:25;;;;;;;7.70;1.42;;;;;;;;;;4951697;28;20114;-85
2021/12/20 12:14:01;;;;;;;5.65;1.80;;;;;;;;;;4974524;28;20054;-86
2021/12/20 12:16:47;;;;;;;7.05;1.45;;;;;;;;;;4973575;28;20061;-85
2021/12/20 12:19:33;;;;;;;9.43;2.28;;;;;;;;;;4953157;28;20063;-85
2021/12/20 12:21:59;;;;;;;7.45;1.92;;;;;;;;;;4948036;28;20038;-84
2021/12/20 12:24:45;;;;;;;7.95;1.83;;;;;;;;;;4946545;28;20027;-85
2021/12/20 12:27:25;;;;;;;6.93;1.50;;;;;;;;;;4948780;28;20055;-85
2021/12/20 12:30:12;;;;;;;8.93;1.60;;;12.50;99.90;;;;;;4963759;28;20142;-85
2021/12/20 12:32:58;;;;;;;10.90;2.13;;;;;;;;;;4949425;28;20171;-87
2021/12/20 12:35:41;;;;;;;9.73;2.00;;;;;;;;;;4946421;28;20522;-85
2021/12/20 12:38:19;;;;;;;8.60;2.17;;;;;;;;;;4946418;28;20252;-86
2021/12/20 12:40:49;;;;;;;9.50;2.13;;;;;;;;;;4951826;28;20058;-85
2021/12/20 12:43:16;;;;;;;11.18;2.47;;;;;;;;;;4966476;28;20051;-85
2021/12/20 12:45:56;;;;;;;5.50;1.90;;;;;;;;;;4950170;28;20050;-85
2021/12/20 12:48:40;;;;;;;6.88;1.70;;;;;;;;;;4958701;28;20054;-87
2021/12/20 12:51:06;;;;;;;;;;;;;;;;;;4970248;28;20058;-87
2021/12/20 12:53:45;;;;;;;9.02;2.53;;;;;;;;;;4955930;28;20431;-87
2021/12/20 12:56:26;;;;;;;10.00;2.30;;;;;;;;;;4952874;28;20495;-86
2021/12/20 12:59:11;;;;;;;9.15;2.28;;;;;;;;;;4955637;28;20111;-86
2021/12/20 13:01:42;;;;;;;8.80;2.05;;;;;;;;;;4963183;28;20039;-87
2021/12/20 13:04:08;;;;;;;8.80;1.70;;;;;;;;;;4950001;29;20055;-85
2021/12/20 13:06:34;;;;;;;7.88;1.58;;;;;;;;;;4918694;29;20515;-86
2021/12/20 13:09:00;;;;;;;3.65;1.40;;;;;;;;;;4939803;28;20471;-87
2021/12/20 13:11:30;;;;;;;6.18;1.52;;;;;;;;;;4965910;28;20051;-88
2021/12/20 13:14:14;;;;;;;3.30;1.02;;;;;;;;;;4965836;28;20440;-83
2021/12/20 13:16:56;;;;;;;9.90;1.90;;;;;;;;;;4949834;28;20043;-83
2021/12/20 13:19:29;;;;;;;6.07;2.00;;;;;;;;;;4964078;28;20049;-83
2021/12/20 13:22:02;;;;;;;5.22;1.88;;;;;;;;;;4967439;28;20038;-83
2021/12/20 13:24:29;;;;;;;9.27;1.85;;;;;;;;;;4963949;28;20107;-84
2021/12/20 13:27:08;;;;;;;5.88;1.80;;;;;;;;;;4964903;28;20489;-83
2021/12/20 13:29:34;;;;;;;8.75;2.13;;;;;;;;;;4966355;28;20058;-83
2021/12/20 13:32:07;;;;;;;8.38;2.50;;;;;;;;;;4966330;28;20156;-83
2021/12/20 13:34:34;;;;;;;7.97;2.40;;;;;;;;;;4961479;28;20045;-85
2021/12/20 13:37:06;;;;;;;5.72;2.13;;;;;;;;;;4944320;28;20050;-85
2021/12/20 13:39:32;;;;;;;5.75;1.70;;;;;;;;;;4950313;28;20054;-85
2021/12/20 13:42:09;;;;;;;8.90;2.17;;;;;;;;;;4963929;28;20043;-86
2021/12/20 13:44:35;;;;;;;4.90;1.88;;;;;;;;;;4944436;28;20495;-86
2021/12/20 13:47:04;;;;;;;10.30;2.33;;;;;;;;;;4962388;28;20471;-84
2021/12/20 13:49:31;;;;;;;9.95;2.40;;;;;;;;;;4961264;28;20035;-84
2021/12/20 13:51:58;;;;;;;9.68;1.63;;;;;;;;;;4963906;28;20054;-83
2021/12/20 13:54:26;;;;;;;10.35;2.00;;;;;;;;;;4966739;28;20110;-84
2021/12/20 13:57:03;;;;;;;7.72;2.15;;;;;;;;;;4960911;28;20084;-83
2021/12/20 13:59:30;;;;;;;14.15;2.10;;;;;;;;;;4949897;28;20049;-84
2021/12/20 14:01:57;;;;;;;4.97;1.60;;;;;;;;;;4950486;29;20546;-84
2021/12/20 14:04:30;;;;;;;6.28;1.40;;;;;;;;;;4950438;29;20086;-84
2021/12/20 14:06:58;;;;;;;6.00;1.10;;;;;;;;;;4949683;28;20065;-85
2021/12/20 14:09:34;;;;;;;11.63;1.75;;;;;;;;;;4949784;29;20732;-83
2021/12/20 14:12:19;;;;;;;4.28;1.35;;;;;;;;;;4947329;29;20444;-84
2021/12/20 14:15:04;;;;;;;8.18;1.55;;;;;;;;;;4948128;29;20047;-84
2021/12/20 14:17:49;;;;;;;5.43;1.45;;;;;;;;;;4931910;29;20491;-85
2021/12/20 14:20:15;;;;;;;;;;;;;;;;;;4931418;29;20051;-86
2021/12/20 14:22:51;;;;;;;10.60;1.77;;;;;;;;;;4949467;29;19922;-86
2021/12/20 14:25:17;;;;;;;4.80;1.50;;;;;;;;;;4949264;28;20523;-85
2021/12/20 14:28:00;;;;;;;5.22;1.48;;;;;;;;;;4948416;28;20129;-85
2021/12/20 14:30:26;;;;;;;8.85;1.58;;;;;;;;;;4964029;28;20190;-84
2021/12/20 14:32:52;;;;;;;7.55;2.40;;;;;;;;;;4950784;28;20054;-85
2021/12/20 14:35:29;;;;;;;9.35;2.15;;;;;;;;;;4957173;28;20153;-86
2021/12/20 14:37:56;;;;;;;8.13;1.73;;;;;;;;;;4958929;28;20055;-85
2021/12/20 14:40:42;;;;;;;11.20;2.30;;;;;;;;;;4978812;28;20384;-85
2021/12/20 14:43:13;;;;;;;10.55;2.05;;;;;;;;;;4962201;28;20791;-85
2021/12/20 14:45:40;;;;;;;15.63;2.42;;;;;;;;;;4945024;28;20404;-85
2021/12/20 14:48:22;;;;;;;9.13;2.35;;;;;;;;;;4953894;28;20121;-85
2021/12/20 14:50:50;;;;;;;5.47;2.30;;;;;;;;;;4963495;28;20076;-86
2021/12/20 14:53:17;;;;;;;12.98;1.95;;;;;;;;;;4935968;29;20062;-85